Terminal Aerodrome Forecast
Issued by NWS

Home | Current Version | Previous Version | Text Only | Print | Product List | Glossary Off
Versions: 1 2 3 4 5 6 7 8 9 10 11 12 13 14 15 16 17 18 19 20 21 22 23 24 25 26

000
FTUS45 KRIW 240527
TAFRKS
TAF
KRKS 240527Z 2406/2506 25014G24KT P6SM SCT050
     FM240900 26024G34KT P6SM VCSH BKN050
     FM241500 27019G29KT P6SM SCT050 BKN070
     FM250100 27016KT P6SM BKN060=

USA.gov is the U.S. government's official web portal to all federal, state and local government web resources and services.